Time;durP1;ratioP1;P1;durP2;ratioP2;P2;SDS_P1;SDS_P2;PMS_P1;PMS_P2;Temp;Humidity;BMP_temperature;BMP_pressure;BME280_temperature;BME280_humidity;BME280_pressure;Samples;Min_cycle;Max_cycle;Signal;HPM_P1;HPM_P2
2023/08/09 00:03:37;;;;;;;1.33;1.13;;;;;;;;;;10369036;28;20030;-54
2023/08/09 00:08:38;;;;;;;1.88;1.10;;;;;;;;;;10369238;28;20026;-54
2023/08/09 00:13:38;;;;;;;1.38;0.90;;;;;;;;;;10368770;28;20033;-54
2023/08/09 00:18:39;;;;;;;1.88;1.10;;;;;;;;;;10368461;28;20036;-54
2023/08/09 00:23:39;;;;;;;2.17;0.90;;;;;;;;;;10368325;28;20096;-55
2023/08/09 00:28:40;;;;;;;1.08;0.90;;;;;;;;;;10368724;28;20025;-53
2023/08/09 00:33:40;;;;;;;2.03;0.90;;;;;;;;;;10367224;28;20030;-54
2023/08/09 00:38:43;;;;;;;1.88;1.10;;;;;;;;;;10368586;28;20474;-55
2023/08/09 00:43:43;;;;;;;2.08;1.27;;;;;;;;;;10367649;28;20408;-55
2023/08/09 00:48:44;;;;;;;1.65;1.10;;;;;;;;;;10367910;28;20045;-55
2023/08/09 00:53:44;;;;;;;1.73;1.20;;;;;;;;;;10367929;28;20044;-54
2023/08/09 00:58:45;;;;;;;11.48;1.23;;;;;;;;;;10367747;28;20370;-56
2023/08/09 01:03:45;;;;;;;1.63;1.20;;;;;;;;;;10367557;28;20060;-54
2023/08/09 01:09:26;;;;;;;1.38;0.90;;;;;;;;;;10367270;28;20038;-55
2023/08/09 01:14:29;;;;;;;7.10;1.15;;;;;;;;;;10367075;28;20038;-53
2023/08/09 01:19:48;;;;;;;1.88;1.25;;;;;;;;;;10367535;28;20026;-53
2023/08/09 01:24:49;;;;;;;2.72;1.30;;;;;;;;;;10366865;28;20030;-55
2023/08/09 01:29:51;;;;;;;1.60;1.10;;;;;;;;;;10366234;28;20064;-51
2023/08/09 01:34:52;;;;;;;1.67;1.02;;;;;;;;;;10367090;28;20064;-52
2023/08/09 01:39:57;;;;;;;2.30;1.30;;;;;;;;;;10367260;28;20035;-54
2023/08/09 01:44:58;;;;;;;2.55;1.23;;;;;;;;;;10370279;28;20103;-52
2023/08/09 01:49:58;;;;;;;2.00;1.10;;;;;;;;;;10373084;28;20022;-52
2023/08/09 01:54:59;;;;;;;2.40;0.98;;;;;;;;;;10373793;28;20036;-52
2023/08/09 01:59:59;;;;;;;1.40;1.05;;;;;;;;;;10374360;28;20030;-51
2023/08/09 02:05:00;;;;;;;1.85;1.30;;;;;;;;;;10373638;28;20042;-52
2023/08/09 02:10:01;;;;;;;2.35;1.15;;;;;;;;;;10373326;28;20076;-52
2023/08/09 02:15:01;;;;;;;5.07;1.30;;;;;;;;;;10374153;28;20029;-55
2023/08/09 02:20:04;;;;;;;2.25;0.90;;;;;;;;;;10373534;28;20434;-54
2023/08/09 02:25:07;;;;;;;1.17;0.90;;;;;;;;;;10373415;28;20036;-56
2023/08/09 02:30:08;;;;;;;1.63;1.08;;;;;;;;;;10387997;28;20025;-54
2023/08/09 02:35:10;;;;;;;1.48;1.02;;;;;;;;;;10372472;28;20120;-52
2023/08/09 02:40:11;;;;;;;2.28;1.10;;;;;;;;;;10372205;28;20121;-54
2023/08/09 02:45:12;;;;;;;4.22;0.90;;;;;;;;;;10373048;28;20057;-55
2023/08/09 02:50:12;;;;;;;2.15;0.90;;;;;;;;;;10371989;28;20062;-54
2023/08/09 02:55:13;;;;;;;1.13;0.93;;;;;;;;;;10370412;28;20025;-55
2023/08/09 03:00:16;;;;;;;2.05;1.10;;;;;;;;;;10371375;28;20032;-55
2023/08/09 03:05:17;;;;;;;5.78;1.23;;;;;;;;;;10371921;28;20121;-53
2023/08/09 03:10:18;;;;;;;5.18;1.23;;;;;;;;;;10371166;28;20385;-54
2023/08/09 03:15:18;;;;;;;2.15;0.90;;;;;;;;;;10371401;28;20044;-55
2023/08/09 03:20:19;;;;;;;2.55;1.10;;;;;;;;;;10370833;28;20076;-54
2023/08/09 03:25:20;;;;;;;5.10;1.23;;;;;;;;;;10370525;28;20029;-56
2023/08/09 03:30:20;;;;;;;1.98;1.00;;;;;;;;;;10370266;28;20057;-53
2023/08/09 03:35:21;;;;;;;4.22;0.90;;;;;;;;;;10370052;28;20053;-56
2023/08/09 03:40:22;;;;;;;3.20;1.00;;;;;;;;;;10370053;28;20026;-54
2023/08/09 03:45:23;;;;;;;2.47;1.00;;;;;;;;;;10370384;28;20033;-54
2023/08/09 03:50:23;;;;;;;1.10;1.00;;;;;;;;;;10370115;28;20068;-55
2023/08/09 03:55:24;;;;;;;1.10;1.00;;;;;;;;;;10369342;28;20451;-54
2023/08/09 04:00:26;;;;;;;2.55;1.30;;;;;;;;;;10369482;28;20034;-54
2023/08/09 04:05:26;;;;;;;2.38;1.00;;;;;;;;;;10369504;28;20197;-55
2023/08/09 04:10:27;;;;;;;1.42;1.20;;;;;;;;;;10368640;28;20473;-53
2023/08/09 04:15:27;;;;;;;2.95;1.20;;;;;;;;;;10368553;28;20096;-55
2023/08/09 04:20:28;;;;;;;3.78;1.40;;;;;;;;;;10368810;28;20064;-54
2023/08/09 04:25:30;;;;;;;1.88;1.15;;;;;;;;;;10368547;28;20037;-56
2023/08/09 04:30:30;;;;;;;2.95;1.17;;;;;;;;;;10368990;28;20042;-54
2023/08/09 04:35:33;;;;;;;4.55;1.02;;;;;;;;;;10368343;28;20513;-53
2023/08/09 04:40:36;;;;;;;1.20;1.05;;;;;;;;;;10368104;28;20497;-53
2023/08/09 04:45:36;;;;;;;1.20;1.10;;;;;;;;;;10368576;28;20061;-53
2023/08/09 04:50:37;;;;;;;3.15;1.30;;;;;;;;;;10368438;28;20029;-55
2023/08/09 04:55:38;;;;;;;4.22;1.13;;;;;;;;;;10367494;28;20041;-53
2023/08/09 05:00:39;;;;;;;1.73;1.33;;;;;;;;;;10368183;28;20117;-54
2023/08/09 05:05:39;;;;;;;2.28;1.13;;;;;;;;;;10368000;28;20069;-52
2023/08/09 05:10:40;;;;;;;2.67;1.40;;;;;;;;;;10368087;28;20034;-53
2023/08/09 05:15:40;;;;;;;1.70;1.20;;;;;;;;;;10367843;28;20505;-53
2023/08/09 05:20:41;;;;;;;1.67;1.15;;;;;;;;;;10373102;28;20485;-52
2023/08/09 05:25:42;;;;;;;2.78;1.25;;;;;;;;;;10375775;28;20026;-51
2023/08/09 05:30:42;;;;;;;3.58;1.38;;;;;;;;;;10375648;28;20018;-52
2023/08/09 05:35:44;;;;;;;6.55;1.80;;;;;;;;;;10391170;23;20057;-66
2023/08/09 05:40:46;;;;;;;2.08;1.20;;;;;;;;;;10374409;28;20022;-67
2023/08/09 05:45:48;;;;;;;5.28;1.13;;;;;;;;;;10374551;28;20374;-66
2023/08/09 05:50:49;;;;;;;2.45;1.08;;;;;;;;;;10374374;28;20462;-66
2023/08/09 05:55:52;;;;;;;3.42;1.50;;;;;;;;;;10373489;28;20452;-64
2023/08/09 06:00:54;;;;;;;1.20;1.10;;;;;;;;;;10374053;28;20350;-70
2023/08/09 06:05:57;;;;;;;3.67;1.30;;;;;;;;;;10373646;28;20033;-68
2023/08/09 06:10:59;;;;;;;6.53;1.20;;;;;;;;;;10373529;28;20037;-67
2023/08/09 06:16:01;;;;;;;3.55;1.52;;;;;;;;;;10373433;28;20034;-68
2023/08/09 06:21:04;;;;;;;4.22;1.20;;;;;;;;;;10373447;28;20030;-68
2023/08/09 06:26:06;;;;;;;9.30;1.33;;;;;;;;;;10372911;28;20087;-69
2023/08/09 06:31:08;;;;;;;7.88;1.33;;;;;;;;;;10372131;28;20050;-62
2023/08/09 06:36:12;;;;;;;5.72;1.30;;;;;;;;;;10372761;28;20056;-66
2023/08/09 06:41:13;;;;;;;1.38;0.85;;;;;;;;;;10373437;28;20096;-68
2023/08/09 06:46:15;;;;;;;3.83;1.42;;;;;;;;;;10372464;28;20026;-63
2023/08/09 06:51:18;;;;;;;1.90;1.30;;;;;;;;;;10372417;28;20022;-66
2023/08/09 06:56:20;;;;;;;4.03;1.20;;;;;;;;;;10372040;28;20030;-69
2023/08/09 07:01:22;;;;;;;6.38;1.65;;;;;;;;;;10372068;28;20029;-66
2023/08/09 07:06:24;;;;;;;2.90;1.30;;;;;;;;;;10371682;28;20110;-65
2023/08/09 07:11:26;;;;;;;2.80;0.90;;;;;;;;;;10371549;28;20493;-67
2023/08/09 07:16:28;;;;;;;3.20;1.02;;;;;;;;;;10371199;28;20389;-65
2023/08/09 07:21:29;;;;;;;1.50;1.25;;;;;;;;;;10371247;28;20026;-67
2023/08/09 07:26:31;;;;;;;2.05;1.00;;;;;;;;;;10370855;28;20034;-66
2023/08/09 07:31:33;;;;;;;3.25;1.20;;;;;;;;;;10370690;28;20084;-66
2023/08/09 07:36:34;;;;;;;3.47;1.20;;;;;;;;;;10370242;28;20514;-68
2023/08/09 07:41:37;;;;;;;1.60;1.00;;;;;;;;;;10370128;28;20073;-68
2023/08/09 07:46:38;;;;;;;3.47;1.50;;;;;;;;;;10370224;28;20022;-66
2023/08/09 07:51:39;;;;;;;4.53;1.20;;;;;;;;;;10370193;28;20025;-66
2023/08/09 07:56:41;;;;;;;1.65;1.05;;;;;;;;;;10369662;28;20034;-66
2023/08/09 08:01:44;;;;;;;1.13;0.95;;;;;;;;;;10369568;28;20026;-67
2023/08/09 08:06:48;;;;;;;3.28;1.02;;;;;;;;;;10370096;28;20033;-68
2023/08/09 08:11:50;;;;;;;1.05;0.90;;;;;;;;;;10369106;28;20030;-66
2023/08/09 08:16:52;;;;;;;3.20;0.85;;;;;;;;;;10368909;28;20042;-68
2023/08/09 08:21:54;;;;;;;3.20;1.30;;;;;;;;;;10369057;28;20033;-65
2023/08/09 08:26:56;;;;;;;3.63;1.23;;;;;;;;;;10368754;28;20022;-67
2023/08/09 08:31:58;;;;;;;2.95;1.00;;;;;;;;;;10368789;28;20018;-65
2023/08/09 08:37:01;;;;;;;2.45;1.10;;;;;;;;;;10368015;28;20128;-65
2023/08/09 08:42:03;;;;;;;1.92;1.20;;;;;;;;;;10368377;28;20026;-66
2023/08/09 08:47:05;;;;;;;4.30;1.08;;;;;;;;;;10368761;28;20075;-68
2023/08/09 08:52:09;;;;;;;4.15;1.00;;;;;;;;;;10366623;28;20041;-66
2023/08/09 08:57:12;;;;;;;1.88;1.10;;;;;;;;;;10367491;28;20033;-67
2023/08/09 09:02:14;;;;;;;3.03;1.25;;;;;;;;;;10366596;28;20036;-66
2023/08/09 09:07:16;;;;;;;1.65;1.05;;;;;;;;;;10367715;28;20557;-67
2023/08/09 09:12:20;;;;;;;5.10;1.30;;;;;;;;;;10368118;28;20142;-63
2023/08/09 09:17:22;;;;;;;2.95;1.17;;;;;;;;;;10367373;28;20044;-66
2023/08/09 09:22:34;;;;;;;4.18;1.20;;;;;;;;;;10367715;28;20509;-62
2023/08/09 09:27:36;;;;;;;1.85;1.10;;;;;;;;;;10367388;28;20036;-66
2023/08/09 09:32:38;;;;;;;1.42;1.10;;;;;;;;;;10367320;28;20460;-58
2023/08/09 09:37:41;;;;;;;3.28;1.40;;;;;;;;;;10367040;28;20041;-58
2023/08/09 09:42:42;;;;;;;2.40;1.27;;;;;;;;;;10367224;28;20030;-58
2023/08/09 09:47:45;;;;;;;1.30;1.15;;;;;;;;;;10367008;28;20042;-60
2023/08/09 09:52:48;;;;;;;1.17;0.90;;;;;;;;;;10366828;28;20033;-59
2023/08/09 09:57:49;;;;;;;1.27;1.08;;;;;;;;;;10365503;28;20030;-59
2023/08/09 10:02:53;;;;;;;1.15;1.00;;;;;;;;;;10366740;28;20373;-61
2023/08/09 10:07:56;;;;;;;1.30;0.77;;;;;;;;;;10372942;28;20034;-59
2023/08/09 10:13:01;;;;;;;3.30;1.13;;;;;;;;;;10374355;28;20096;-58
2023/08/09 10:18:27;;;;;;;1.90;1.20;;;;;;;;;;10374113;28;20114;-59
2023/08/09 10:23:30;;;;;;;2.00;1.10;;;;;;;;;;10380496;28;20026;-58
2023/08/09 10:28:42;;;;;;;2.03;1.10;;;;;;;;;;10379640;28;20080;-58
2023/08/09 10:34:09;;;;;;;1.35;1.20;;;;;;;;;;10379236;28;20042;-60
2023/08/09 10:39:18;;;;;;;4.97;1.20;;;;;;;;;;10379126;28;20096;-59
2023/08/09 10:44:35;;;;;;;1.30;1.00;;;;;;;;;;10378991;28;20064;-59
2023/08/09 10:49:48;;;;;;;1.20;0.93;;;;;;;;;;10378925;28;20026;-58
2023/08/09 10:55:18;;;;;;;1.40;0.85;;;;;;;;;;10378504;28;20026;-58
2023/08/09 11:00:22;;;;;;;1.23;1.00;;;;;;;;;;10378405;28;20077;-58
2023/08/09 11:05:27;;;;;;;0.95;0.90;;;;;;;;;;10378743;28;20422;-59
2023/08/09 11:10:35;;;;;;;1.33;1.10;;;;;;;;;;10377948;28;20052;-58
2023/08/09 11:15:38;;;;;;;2.22;1.25;;;;;;;;;;10377757;28;20092;-59
2023/08/09 11:20:40;;;;;;;1.83;1.17;;;;;;;;;;10378232;28;20361;-58
2023/08/09 11:25:42;;;;;;;1.40;0.93;;;;;;;;;;10377354;28;20374;-59
2023/08/09 11:30:51;;;;;;;1.10;0.90;;;;;;;;;;10377182;28;20034;-58
2023/08/09 11:35:54;;;;;;;1.92;0.90;;;;;;;;;;10377035;28;20120;-58
2023/08/09 11:40:56;;;;;;;1.70;1.10;;;;;;;;;;10376766;28;20504;-58
2023/08/09 11:45:58;;;;;;;2.85;0.98;;;;;;;;;;10376596;28;20030;-59
2023/08/09 11:51:14;;;;;;;1.38;0.90;;;;;;;;;;10391649;28;20034;-59
2023/08/09 11:56:19;;;;;;;2.45;0.90;;;;;;;;;;10375126;28;20036;-58
2023/08/09 12:01:26;;;;;;;2.55;1.13;;;;;;;;;;10376113;28;20443;-58
2023/08/09 12:06:49;;;;;;;1.45;0.90;;;;;;;;;;10375927;28;20380;-59
2023/08/09 12:11:51;;;;;;;2.97;1.10;;;;;;;;;;10376402;28;20049;-58
2023/08/09 12:16:53;;;;;;;1.75;1.08;;;;;;;;;;10376551;28;20124;-58
2023/08/09 12:21:55;;;;;;;3.05;0.90;;;;;;;;;;10375490;28;20104;-59
2023/08/09 12:26:57;;;;;;;3.17;1.05;;;;;;;;;;10375031;28;20041;-58
2023/08/09 12:32:00;;;;;;;4.10;1.23;;;;;;;;;;10375042;28;20065;-58
2023/08/09 12:37:01;;;;;;;3.65;1.10;;;;;;;;;;10374626;28;20049;-59
2023/08/09 12:42:03;;;;;;;4.15;1.20;;;;;;;;;;10374744;28;20029;-59
2023/08/09 12:47:06;;;;;;;1.85;1.00;;;;;;;;;;10374577;28;20109;-58
2023/08/09 12:52:08;;;;;;;2.03;1.20;;;;;;;;;;10374429;28;20065;-58
2023/08/09 12:57:10;;;;;;;1.25;1.00;;;;;;;;;;10374318;28;20034;-59
2023/08/09 13:02:12;;;;;;;3.25;1.10;;;;;;;;;;10374892;28;20025;-59
2023/08/09 13:07:14;;;;;;;1.55;1.10;;;;;;;;;;10374143;28;20496;-58
2023/08/09 13:12:15;;;;;;;9.95;1.10;;;;;;;;;;10374080;28;20036;-58
2023/08/09 13:17:17;;;;;;;1.45;0.90;;;;;;;;;;10373870;28;20034;-58
2023/08/09 13:22:18;;;;;;;1.80;1.10;;;;;;;;;;10373974;28;20108;-59
2023/08/09 13:27:20;;;;;;;3.17;1.27;;;;;;;;;;10373762;28;20046;-59
2023/08/09 13:32:22;;;;;;;1.63;0.95;;;;;;;;;;10373739;28;20034;-66
2023/08/09 13:37:23;;;;;;;2.80;1.13;;;;;;;;;;10373289;28;20125;-66
2023/08/09 13:42:25;;;;;;;4.63;1.30;;;;;;;;;;10379694;28;20054;-67
2023/08/09 13:47:27;;;;;;;4.13;1.25;;;;;;;;;;10382452;28;20025;-66
2023/08/09 13:52:29;;;;;;;5.68;1.25;;;;;;;;;;10381727;28;20029;-64
2023/08/09 13:57:31;;;;;;;3.15;1.45;;;;;;;;;;10380823;28;20466;-66
2023/08/09 14:02:33;;;;;;;3.05;1.08;;;;;;;;;;10380794;28;20030;-64
2023/08/09 14:07:34;;;;;;;2.00;1.00;;;;;;;;;;10381047;28;20025;-65
2023/08/09 14:12:35;;;;;;;1.40;0.95;;;;;;;;;;10380240;28;20482;-66
2023/08/09 14:17:37;;;;;;;1.48;0.98;;;;;;;;;;10380291;28;20497;-67
2023/08/09 14:22:38;;;;;;;0.98;0.90;;;;;;;;;;10380510;28;20116;-66
2023/08/09 14:27:40;;;;;;;4.47;1.08;;;;;;;;;;10379642;28;20030;-66
2023/08/09 14:32:42;;;;;;;1.48;1.05;;;;;;;;;;10379530;28;20026;-64
2023/08/09 14:37:43;;;;;;;2.58;1.40;;;;;;;;;;10379250;28;20410;-67
2023/08/09 14:42:45;;;;;;;1.08;0.93;;;;;;;;;;10379168;28;20374;-66
2023/08/09 14:47:46;;;;;;;1.52;1.02;;;;;;;;;;10379156;28;20037;-66
2023/08/09 14:52:48;;;;;;;1.33;0.70;;;;;;;;;;10378426;28;20041;-65
2023/08/09 14:57:50;;;;;;;5.43;1.20;;;;;;;;;;10379034;28;20026;-66
2023/08/09 15:02:53;;;;;;;1.17;1.08;;;;;;;;;;10377852;28;20034;-66
2023/08/09 15:07:55;;;;;;;2.38;1.17;;;;;;;;;;10378752;28;20036;-65
2023/08/09 15:12:56;;;;;;;2.45;1.10;;;;;;;;;;10377923;28;20030;-67
2023/08/09 15:17:58;;;;;;;4.47;1.08;;;;;;;;;;10377710;28;20088;-67
2023/08/09 15:22:59;;;;;;;4.90;1.20;;;;;;;;;;10378105;28;20033;-66
2023/08/09 15:28:02;;;;;;;4.18;1.30;;;;;;;;;;10377968;28;20474;-65
2023/08/09 15:33:04;;;;;;;1.60;0.95;;;;;;;;;;10377130;28;20116;-66
2023/08/09 15:38:06;;;;;;;2.58;1.23;;;;;;;;;;10376771;28;20050;-67
2023/08/09 15:43:08;;;;;;;2.90;1.00;;;;;;;;;;10376864;28;20433;-66
2023/08/09 15:48:09;;;;;;;3.42;1.10;;;;;;;;;;10377146;28;20414;-67
2023/08/09 15:53:10;;;;;;;5.97;1.15;;;;;;;;;;10377028;28;20021;-67
2023/08/09 15:58:12;;;;;;;2.53;1.38;;;;;;;;;;10376231;28;20422;-69
2023/08/09 16:03:14;;;;;;;2.50;1.17;;;;;;;;;;10376040;28;20107;-69
2023/08/09 16:08:16;;;;;;;1.75;1.05;;;;;;;;;;10375960;28;20026;-68
2023/08/09 16:13:17;;;;;;;1.75;1.30;;;;;;;;;;10375589;28;20034;-69
2023/08/09 16:18:19;;;;;;;1.10;1.00;;;;;;;;;;10376081;28;20030;-69
2023/08/09 16:23:22;;;;;;;3.63;1.08;;;;;;;;;;10375999;28;20125;-69
2023/08/09 16:28:23;;;;;;;1.52;1.10;;;;;;;;;;10375209;28;20022;-62
2023/08/09 16:33:25;;;;;;;2.50;1.27;;;;;;;;;;10375005;28;20026;-69
2023/08/09 16:38:26;;;;;;;1.98;0.88;;;;;;;;;;10374938;28;20065;-69
2023/08/09 16:43:34;;;;;;;1.70;1.33;;;;;;;;;;10375486;28;20026;-69
2023/08/09 16:48:36;;;;;;;1.33;1.23;;;;;;;;;;10375365;28;20034;-71
2023/08/09 16:53:37;;;;;;;3.60;1.50;;;;;;;;;;10374912;28;20038;-70
2023/08/09 16:58:40;;;;;;;2.50;1.70;;;;;;;;;;10374521;28;20033;-72
2023/08/09 17:03:41;;;;;;;2.70;1.30;;;;;;;;;;10374100;28;20062;-71
2023/08/09 17:08:44;;;;;;;4.30;1.40;;;;;;;;;;10374165;28;20481;-71
2023/08/09 17:13:46;;;;;;;1.60;1.30;;;;;;;;;;10374334;28;20056;-66
2023/08/09 17:18:47;;;;;;;1.42;1.27;;;;;;;;;;10382469;28;20061;-67
2023/08/09 17:23:48;;;;;;;1.73;1.48;;;;;;;;;;10383415;28;20076;-67
2023/08/09 17:28:50;;;;;;;3.20;1.48;;;;;;;;;;10383272;28;20096;-65
2023/08/09 17:33:51;;;;;;;8.57;1.33;;;;;;;;;;10381819;28;20085;-68
2023/08/09 17:38:53;;;;;;;1.63;1.15;;;;;;;;;;10381543;28;20125;-67
2023/08/09 17:43:54;;;;;;;1.98;1.27;;;;;;;;;;10381370;28;20042;-67
2023/08/09 17:48:57;;;;;;;1.75;1.35;;;;;;;;;;10381399;28;20076;-68
2023/08/09 17:53:59;;;;;;;3.10;1.70;;;;;;;;;;10381608;28;20092;-68
2023/08/09 17:59:01;;;;;;;2.20;1.23;;;;;;;;;;10380889;28;20030;-68
2023/08/09 18:04:03;;;;;;;1.60;1.20;;;;;;;;;;10381311;28;20084;-68
2023/08/09 18:09:09;;;;;;;2.05;1.33;;;;;;;;;;10381205;28;20033;-68
2023/08/09 18:14:11;;;;;;;3.75;1.30;;;;;;;;;;10380783;28;20087;-66
2023/08/09 18:19:16;;;;;;;5.47;1.40;;;;;;;;;;10380266;28;20056;-64
2023/08/09 18:24:18;;;;;;;1.70;1.30;;;;;;;;;;10380569;28;20096;-66
2023/08/09 18:29:20;;;;;;;4.03;1.17;;;;;;;;;;10378437;28;20068;-64
2023/08/09 18:34:22;;;;;;;2.95;1.30;;;;;;;;;;10378223;28;20041;-66
2023/08/09 18:39:26;;;;;;;2.58;1.00;;;;;;;;;;10379221;28;20100;-66
2023/08/09 18:44:27;;;;;;;1.23;1.10;;;;;;;;;;10379137;28;20030;-67
2023/08/09 18:49:29;;;;;;;2.90;1.27;;;;;;;;;;10379685;28;20034;-66
2023/08/09 18:54:30;;;;;;;2.42;1.30;;;;;;;;;;10378711;28;20029;-66
2023/08/09 18:59:32;;;;;;;3.83;1.33;;;;;;;;;;10378644;28;20025;-67
2023/08/09 19:04:34;;;;;;;1.23;1.13;;;;;;;;;;10378939;28;20025;-66
2023/08/09 19:09:35;;;;;;;5.78;1.58;;;;;;;;;;10378868;28;20411;-67
2023/08/09 19:14:37;;;;;;;3.30;1.40;;;;;;;;;;10378776;28;20037;-63
2023/08/09 19:19:39;;;;;;;5.85;1.25;;;;;;;;;;10378399;28;20033;-62
2023/08/09 19:24:41;;;;;;;1.63;1.25;;;;;;;;;;10377542;28;20025;-66
2023/08/09 19:29:41;;;;;;;2.63;1.67;;;;;;;;;;10377597;28;20034;-62
2023/08/09 19:34:45;;;;;;;2.58;1.20;;;;;;;;;;10370648;28;20462;-63
2023/08/09 19:39:45;;;;;;;2.05;1.52;;;;;;;;;;10368819;28;20056;-61
2023/08/09 19:44:46;;;;;;;2.80;1.50;;;;;;;;;;10369959;28;20080;-61
2023/08/09 19:49:47;;;;;;;2.25;1.20;;;;;;;;;;10370748;28;20033;-61
2023/08/09 19:54:47;;;;;;;3.78;1.50;;;;;;;;;;10369815;28;20034;-62
2023/08/09 19:59:48;;;;;;;3.72;1.23;;;;;;;;;;10368831;28;20038;-62
2023/08/09 20:04:49;;;;;;;2.50;1.35;;;;;;;;;;10369018;28;20030;-62
2023/08/09 20:09:49;;;;;;;2.05;1.20;;;;;;;;;;10368543;28;20033;-63
2023/08/09 20:14:52;;;;;;;1.17;1.05;;;;;;;;;;10368732;28;20474;-66
2023/08/09 20:19:54;;;;;;;6.45;1.30;;;;;;;;;;10367876;28;20022;-69
2023/08/09 20:24:55;;;;;;;4.63;1.30;;;;;;;;;;10364994;28;20112;-63
2023/08/09 20:29:55;;;;;;;7.20;1.80;;;;;;;;;;10368983;28;20112;-62
2023/08/09 20:34:56;;;;;;;5.00;2.05;;;;;;;;;;10368119;28;20050;-67
2023/08/09 20:39:57;;;;;;;13.43;1.95;;;;;;;;;;10367251;28;20032;-62
2023/08/09 20:44:57;;;;;;;5.53;2.25;;;;;;;;;;10366534;28;20026;-62
2023/08/09 20:49:59;;;;;;;4.80;1.63;;;;;;;;;;10366568;28;20068;-62
2023/08/09 20:55:00;;;;;;;4.90;1.80;;;;;;;;;;10366820;28;20040;-62
2023/08/09 21:00:00;;;;;;;3.42;1.92;;;;;;;;;;10368297;28;20026;-63
2023/08/09 21:05:01;;;;;;;6.07;1.92;;;;;;;;;;10367256;28;20079;-63
2023/08/09 21:10:02;;;;;;;2.20;1.77;;;;;;;;;;10367085;28;20034;-62
2023/08/09 21:15:04;;;;;;;3.60;2.13;;;;;;;;;;10367648;28;20044;-62
2023/08/09 21:20:06;;;;;;;6.45;2.28;;;;;;;;;;10366967;28;20029;-62
2023/08/09 21:25:07;;;;;;;2.95;1.42;;;;;;;;;;10367206;28;20108;-62
2023/08/09 21:30:08;;;;;;;4.13;1.75;;;;;;;;;;10366875;28;20488;-64
2023/08/09 21:35:09;;;;;;;4.38;1.42;;;;;;;;;;10366687;28;20049;-64
2023/08/09 21:40:10;;;;;;;2.95;1.70;;;;;;;;;;10366765;28;20037;-64
2023/08/09 21:45:11;;;;;;;2.22;1.70;;;;;;;;;;10364752;28;20370;-65
2023/08/09 21:50:11;;;;;;;3.22;1.65;;;;;;;;;;10366346;28;20358;-65
2023/08/09 21:55:12;;;;;;;2.38;1.67;;;;;;;;;;10365645;28;20026;-65
2023/08/09 22:00:14;;;;;;;2.42;1.50;;;;;;;;;;10367633;28;20060;-65
2023/08/09 22:05:15;;;;;;;3.95;1.60;;;;;;;;;;10373523;28;20208;-62
2023/08/09 22:10:15;;;;;;;7.60;2.50;;;;;;;;;;10373935;28;20030;-64
2023/08/09 22:15:16;;;;;;;3.80;1.88;;;;;;;;;;10373933;28;20109;-63
2023/08/09 22:20:18;;;;;;;5.03;1.92;;;;;;;;;;10374017;28;20041;-62
2023/08/09 22:25:19;;;;;;;3.88;2.22;;;;;;;;;;10373540;28;20034;-72
2023/08/09 22:30:19;;;;;;;8.02;1.80;;;;;;;;;;10373322;28;20065;-62
2023/08/09 22:35:20;;;;;;;2.00;1.55;;;;;;;;;;10372531;28;20418;-61
2023/08/09 22:40:21;;;;;;;6.65;2.13;;;;;;;;;;10372612;28;20049;-61
2023/08/09 22:45:21;;;;;;;7.05;2.00;;;;;;;;;;10373156;28;20038;-63
2023/08/09 22:50:22;;;;;;;5.22;2.10;;;;;;;;;;10372675;28;20037;-62
2023/08/09 22:55:23;;;;;;;3.35;1.80;;;;;;;;;;10371856;28;20029;-62
2023/08/09 23:00:23;;;;;;;2.22;2.03;;;;;;;;;;10371948;28;20030;-63
2023/08/09 23:05:24;;;;;;;4.80;1.92;;;;;;;;;;10371943;28;20064;-63
2023/08/09 23:10:24;;;;;;;2.95;1.58;;;;;;;;;;10372056;28;20022;-62
2023/08/09 23:15:25;;;;;;;6.28;2.08;;;;;;;;;;10370550;28;20036;-61
2023/08/09 23:20:27;;;;;;;4.35;2.10;;;;;;;;;;10371174;28;20022;-63
2023/08/09 23:25:28;;;;;;;2.88;1.92;;;;;;;;;;10371024;28;20541;-63
2023/08/09 23:30:28;;;;;;;5.78;1.88;;;;;;;;;;10371031;28;20176;-63
2023/08/09 23:35:29;;;;;;;5.70;1.60;;;;;;;;;;10369915;28;20046;-63
2023/08/09 23:40:29;;;;;;;1.60;1.23;;;;;;;;;;10370916;28;20521;-60
2023/08/09 23:45:30;;;;;;;2.42;1.50;;;;;;;;;;10370346;28;20473;-62
2023/08/09 23:50:31;;;;;;;6.50;1.70;;;;;;;;;;10369565;28;20409;-63
2023/08/09 23:55:32;;;;;;;4.78;1.90;;;;;;;;;;10369940;28;20045;-63
